Time;durP1;ratioP1;P1;durP2;ratioP2;P2;SDS_P1;SDS_P2;PMS_P1;PMS_P2;Temp;Humidity;BMP_temperature;BMP_pressure;BME280_temperature;BME280_humidity;BME280_pressure;Samples;Min_cycle;Max_cycle;Signal;HPM_P1;HPM_P2
2024/02/04 00:01:51;;;;;;;9.15;2.22;;;;;;;9.67;100.00;101029.94;5235524;28;20035;-75
2024/02/04 00:04:23;;;;;;;6.35;1.85;;;;;;;9.67;100.00;101033.41;5239006;28;20107;-75
2024/02/04 00:06:53;;;;;;;7.07;2.63;;;;;;;9.61;100.00;101028.34;5230852;28;20107;-75
2024/02/04 00:09:24;;;;;;;5.80;1.80;;;;;;;9.59;100.00;101031.88;5243079;28;20602;-76
2024/02/04 00:11:54;;;;;;;7.25;1.85;;;;;;;9.63;100.00;101030.94;5242776;28;20036;-75
2024/02/04 00:14:24;;;;;;;8.27;1.92;;;;;;;9.55;100.00;101035.44;5240535;28;20035;-75
2024/02/04 00:16:54;;;;;;;7.70;1.60;;;;;;;9.57;100.00;101031.91;5248230;28;20020;-75
2024/02/04 00:19:25;;;;;;;4.63;1.63;;;;;;;9.53;100.00;101016.38;5240755;28;20044;-75
2024/02/04 00:21:55;;;;;;;4.15;1.80;;;;;;;9.46;100.00;101033.09;5247161;28;20031;-75
2024/02/04 00:24:25;;;;;;;6.35;1.70;;;;;;;9.47;100.00;101030.41;5239212;28;20100;-75
2024/02/04 00:26:56;;;;;;;9.18;1.70;;;;;;;9.48;100.00;101037.34;5244355;28;20028;-75
2024/02/04 00:29:26;;;;;;;6.28;1.75;;;;;;;9.53;100.00;101038.13;5233823;28;20115;-75
2024/02/04 00:31:56;;;;;;;4.50;1.80;;;;;;;9.48;100.00;101024.31;5231296;28;20414;-75
2024/02/04 00:34:27;;;;;;;6.10;1.77;;;;;;;9.45;100.00;101031.38;5236498;28;20032;-75
2024/02/04 00:36:57;;;;;;;6.40;1.80;;;;;;;9.42;100.00;101031.41;5227014;28;20119;-75
2024/02/04 00:39:27;;;;;;;5.03;1.70;;;;;;;9.27;100.00;101030.03;5235880;28;20040;-75
2024/02/04 00:41:57;;;;;;;4.38;2.08;;;;;;;9.32;100.00;101028.16;5233902;28;20074;-75
2024/02/04 00:44:28;;;;;;;7.22;1.70;;;;;;;9.27;100.00;101031.75;5223586;28;20047;-75
2024/02/04 00:46:58;;;;;;;4.10;2.00;;;;;;;9.31;100.00;101028.22;5247371;28;20028;-75
2024/02/04 00:49:28;;;;;;;10.82;2.35;;;;;;;9.37;100.00;101028.06;5243797;28;20032;-75
2024/02/04 00:51:58;;;;;;;5.32;2.30;;;;;;;9.35;100.00;101016.81;5243937;28;20038;-76
2024/02/04 00:54:29;;;;;;;6.18;2.40;;;;;;;9.30;100.00;101005.63;5240033;28;20123;-75
2024/02/04 00:57:00;;;;;;;6.95;2.70;;;;;;;9.27;100.00;100990.91;5241704;28;20020;-75
2024/02/04 00:59:30;;;;;;;7.10;2.70;;;;;;;9.18;100.00;101000.69;5240794;28;20028;-76
2024/02/04 01:02:00;;;;;;;5.20;2.30;;;;;;;9.16;100.00;101002.50;5243146;28;20035;-76
2024/02/04 01:04:30;;;;;;;7.47;2.88;;;;;;;9.11;100.00;101006.97;5235940;28;20059;-75
2024/02/04 01:07:01;;;;;;;8.05;2.80;;;;;;;9.14;100.00;101009.50;5231499;28;20267;-75
2024/02/04 01:09:31;;;;;;;9.68;2.92;;;;;;;9.12;100.00;101002.59;5234599;28;20032;-75
2024/02/04 01:12:03;;;;;;;6.57;2.92;;;;;;;9.13;100.00;101003.41;5234785;28;20044;-75
2024/02/04 01:14:33;;;;;;;8.00;3.42;;;;;;;9.06;100.00;101011.41;5240699;28;20029;-75
2024/02/04 01:17:03;;;;;;;9.23;3.13;;;;;;;9.12;100.00;101013.88;5246088;28;20706;-76
2024/02/04 01:19:34;;;;;;;4.97;2.75;;;;;;;9.06;100.00;101021.00;5236270;28;20477;-74
2024/02/04 01:22:05;;;;;;;9.93;2.97;;;;;;;9.05;100.00;101022.72;5221205;28;20017;-75
2024/02/04 01:24:36;;;;;;;6.63;2.72;;;;;;;9.14;100.00;101009.50;5226190;28;20033;-75
2024/02/04 01:27:07;;;;;;;6.90;3.13;;;;;;;9.09;100.00;101011.31;5243561;28;20082;-75
2024/02/04 01:29:37;;;;;;;9.63;2.95;;;;;;;9.11;100.00;101004.34;5242651;28;20032;-75
2024/02/04 01:32:08;;;;;;;9.65;3.20;;;;;;;9.08;100.00;101009.59;5236644;28;20024;-75
2024/02/04 01:34:38;;;;;;;6.10;3.13;;;;;;;9.09;100.00;101000.91;5244506;28;20020;-76
2024/02/04 01:37:08;;;;;;;9.00;3.03;;;;;;;9.19;100.00;101007.63;5245816;28;20568;-75
2024/02/04 01:39:39;;;;;;;10.07;3.08;;;;;;;9.17;100.00;101009.41;5221000;28;20047;-75
2024/02/04 01:42:10;;;;;;;8.48;3.53;;;;;;;9.12;100.00;101005.19;5231344;28;20214;-75
2024/02/04 01:44:40;;;;;;;6.18;2.92;;;;;;;9.10;100.00;101012.19;5241022;28;20016;-75
2024/02/04 01:47:10;;;;;;;12.30;3.85;;;;;;;9.17;100.00;101012.03;5239613;28;20474;-75
2024/02/04 01:49:41;;;;;;;6.63;3.33;;;;;;;9.11;100.00;101012.19;5239407;28;20027;-75
2024/02/04 01:52:12;;;;;;;9.15;3.53;;;;;;;9.07;100.00;100997.47;5230064;28;20039;-75
2024/02/04 01:54:43;;;;;;;7.45;3.55;;;;;;;9.05;100.00;101003.63;5242993;28;20554;-75
2024/02/04 01:57:13;;;;;;;13.82;3.65;;;;;;;9.07;100.00;101009.66;5244954;28;20036;-75
2024/02/04 01:59:44;;;;;;;9.10;3.28;;;;;;;9.00;100.00;101015.88;5233081;28;20082;-75
2024/02/04 02:02:14;;;;;;;10.90;3.72;;;;;;;9.04;100.00;101013.19;5249979;28;20107;-76
2024/02/04 02:04:46;;;;;;;12.05;3.63;;;;;;;9.00;100.00;101011.56;5239955;28;20405;-74
2024/02/04 02:07:19;;;;;;;7.80;3.30;;;;;;;9.08;100.00;101001.78;5243335;28;20566;-75
2024/02/04 02:09:50;;;;;;;12.27;3.60;;;;;;;9.04;100.00;100997.53;5235555;28;20024;-75
2024/02/04 02:12:25;;;;;;;10.05;3.50;;;;;;;9.07;100.00;100987.03;5238294;28;20396;-75
2024/02/04 02:15:15;;;;;;;9.65;3.53;;;;;;;9.03;100.00;100980.19;5251163;28;20425;-75
2024/02/04 02:17:50;;;;;;;6.07;2.83;;;;;;;9.05;100.00;100983.63;5244409;28;20036;-75
2024/02/04 02:20:35;;;;;;;10.70;3.00;;;;;;;9.12;100.00;100995.63;5244012;28;20024;-75
2024/02/04 02:23:14;;;;;;;10.50;3.35;;;;;;;9.11;100.00;100999.13;5250351;28;20035;-75
2024/02/04 02:25:46;;;;;;;8.82;2.92;;;;;;;9.16;100.00;101002.50;5244324;28;20116;-75
2024/02/04 02:28:16;;;;;;;9.30;2.83;;;;;;;9.13;100.00;100998.19;5240476;28;20837;-75
2024/02/04 02:30:46;;;;;;;10.80;2.92;;;;;;;9.22;100.00;100994.50;5249279;28;20038;-75
2024/02/04 02:33:17;;;;;;;6.45;2.97;;;;;;;9.27;100.00;100987.44;5249641;28;20054;-76
2024/02/04 02:35:53;;;;;;;8.07;2.97;;;;;;;9.32;100.00;100985.59;5246805;28;20029;-75
2024/02/04 02:38:32;;;;;;;6.47;2.72;;;;;;;9.25;100.00;100970.97;5234220;28;20055;-75
2024/02/04 02:41:07;;;;;;;9.85;3.03;;;;;;;9.20;100.00;100965.00;5247581;28;20028;-75
2024/02/04 02:43:41;;;;;;;5.22;2.80;;;;;;;9.30;100.00;100964.75;5249793;28;20033;-75
2024/02/04 02:46:11;;;;;;;9.68;3.10;;;;;;;9.32;100.00;100964.72;5252201;28;20526;-75
2024/02/04 02:48:42;;;;;;;9.25;2.90;;;;;;;9.30;100.00;100961.31;5249956;28;20040;-75
2024/02/04 02:51:12;;;;;;;7.75;2.72;;;;;;;9.24;100.00;100966.66;5243163;28;20549;-75
2024/02/04 02:53:42;;;;;;;10.02;3.00;;;;;;;9.28;100.00;100961.31;5235069;28;20036;-75
2024/02/04 02:56:13;;;;;;;10.15;3.60;;;;;;;9.32;100.00;100962.13;5245541;28;20315;-75
2024/02/04 02:58:43;;;;;;;7.28;3.08;;;;;;;9.32;100.00;100965.56;5247570;28;20090;-75
2024/02/04 03:01:13;;;;;;;8.13;3.15;;;;;;;9.32;100.00;100955.13;5253473;28;20534;-75
2024/02/04 03:03:44;;;;;;;12.20;3.30;;;;;;;9.34;100.00;100960.31;5248440;28;20055;-76
2024/02/04 03:06:14;;;;;;;8.43;3.28;;;;;;;9.35;100.00;100943.78;5238199;28;20031;-75
2024/02/04 03:08:44;;;;;;;8.90;3.20;;;;;;;9.44;100.00;100946.16;5227360;28;20038;-74
2024/02/04 03:11:15;;;;;;;7.95;3.55;;;;;;;9.42;100.00;100953.16;5247970;28;20436;-75
2024/02/04 03:13:45;;;;;;;8.07;3.50;;;;;;;9.47;100.00;100949.53;5247371;28;20028;-75
2024/02/04 03:16:15;;;;;;;7.95;3.92;;;;;;;9.48;100.00;100937.38;5252397;28;20401;-75
2024/02/04 03:18:46;;;;;;;12.27;3.78;;;;;;;9.53;100.00;100943.31;5248468;28;20035;-75
2024/02/04 03:21:16;;;;;;;10.82;4.15;;;;;;;9.56;100.00;100940.63;5253608;28;20213;-76
2024/02/04 03:23:47;;;;;;;6.20;3.80;;;;;;;9.54;100.00;100935.47;5247557;28;20299;-75
2024/02/04 03:26:20;;;;;;;11.75;3.28;;;;;;;9.52;100.00;100934.63;5252885;28;20075;-75
2024/02/04 03:28:50;;;;;;;11.35;3.10;;;;;;;9.56;100.00;100933.66;5248958;28;20036;-75
2024/02/04 03:31:22;;;;;;;10.65;3.45;;;;;;;9.66;100.00;100929.91;5242547;28;20397;-75
2024/02/04 03:33:52;;;;;;;9.35;3.50;;;;;;;9.67;100.00;100928.16;5246331;28;20040;-75
2024/02/04 03:36:24;;;;;;;9.32;3.60;;;;;;;9.71;100.00;100930.66;5250747;28;20028;-75
2024/02/04 03:38:54;;;;;;;10.88;3.25;;;;;;;9.66;100.00;100927.28;5238670;28;20506;-75
2024/02/04 03:41:24;;;;;;;7.97;3.13;;;;;;;9.65;100.00;100919.53;5241290;28;20023;-75
2024/02/04 03:43:55;;;;;;;11.32;3.63;;;;;;;9.74;100.00;100908.81;5254956;22;20131;-76
2024/02/04 03:46:25;;;;;;;7.78;3.30;;;;;;;9.73;100.00;100907.13;5200846;28;20040;-77
2024/02/04 03:48:55;;;;;;;9.52;3.38;;;;;;;9.67;100.00;100902.06;5220874;28;20025;-76
2024/02/04 03:51:26;;;;;;;10.25;4.32;;;;;;;9.60;100.00;100901.38;5227383;28;20024;-76
2024/02/04 03:53:56;;;;;;;9.68;4.40;;;;;;;9.67;100.00;100902.06;5218187;28;20474;-76
2024/02/04 03:56:26;;;;;;;9.63;3.88;;;;;;;9.73;100.00;100912.34;5223413;28;20027;-76
2024/02/04 03:58:57;;;;;;;12.07;4.50;;;;;;;9.70;100.00;100912.44;5216160;28;20508;-76
2024/02/04 04:01:27;;;;;;;9.00;3.92;;;;;;;9.70;100.00;100913.28;5228612;28;20509;-75
2024/02/04 04:03:57;;;;;;;10.48;4.30;;;;;;;9.68;100.00;100904.63;5229624;28;20034;-77
2024/02/04 04:06:28;;;;;;;11.00;4.15;;;;;;;9.66;100.00;100900.38;5228911;28;20028;-75
2024/02/04 04:08:59;;;;;;;11.77;4.38;;;;;;;9.66;100.00;100902.97;5226918;28;20028;-77
2024/02/04 04:11:29;;;;;;;9.65;4.35;;;;;;;9.67;100.00;100905.53;5213865;28;20025;-77
2024/02/04 04:13:59;;;;;;;13.73;4.55;;;;;;;9.66;100.00;100902.97;5227190;28;20043;-77
2024/02/04 04:16:29;;;;;;;7.47;4.10;;;;;;;9.63;100.00;100900.44;5229414;28;20040;-76
2024/02/04 04:19:00;;;;;;;8.27;4.53;;;;;;;9.59;100.00;100906.63;5229473;28;20090;-76
2024/02/04 04:21:30;;;;;;;9.00;4.30;;;;;;;9.68;100.00;100909.00;5211890;28;20056;-76
2024/02/04 04:24:00;;;;;;;6.63;4.05;;;;;;;9.65;100.00;100898.66;5211999;28;20037;-76
2024/02/04 04:26:31;;;;;;;9.15;4.72;;;;;;;9.61;100.00;100904.81;5230173;28;20402;-77
2024/02/04 04:29:01;;;;;;;13.57;4.45;;;;;;;9.51;100.00;100895.53;5229851;28;20032;-76
2024/02/04 04:31:32;;;;;;;10.82;4.78;;;;;;;9.61;100.00;100897.00;5210763;28;20024;-75
2024/02/04 04:34:02;;;;;;;8.48;4.50;;;;;;;9.61;100.00;100903.09;5225894;28;20020;-76
2024/02/04 04:36:32;;;;;;;10.35;4.50;;;;;;;9.56;100.00;100889.31;5227407;28;20029;-75
2024/02/04 04:39:03;;;;;;;8.43;4.20;;;;;;;9.63;100.00;100901.28;5228073;28;20131;-76
2024/02/04 04:41:33;;;;;;;10.57;4.55;;;;;;;9.69;100.00;100897.66;5224865;28;20048;-75
2024/02/04 04:44:03;;;;;;;11.07;4.45;;;;;;;9.81;100.00;100892.13;5229257;28;20024;-77
2024/02/04 04:46:37;;;;;;;9.13;4.82;;;;;;;9.78;100.00;100886.97;5228545;28;20061;-75
2024/02/04 04:49:09;;;;;;;11.93;4.50;;;;;;;9.76;100.00;100875.72;5229233;28;20053;-76
2024/02/04 04:51:44;;;;;;;8.85;3.63;;;;;;;9.77;100.00;100880.91;5227231;28;20075;-76
2024/02/04 04:54:14;;;;;;;12.00;4.18;;;;;;;9.79;100.00;100873.88;5229429;28;20433;-76
2024/02/04 04:56:45;;;;;;;7.38;4.50;;;;;;;9.81;100.00;100879.06;5227842;28;20039;-76
2024/02/04 04:59:16;;;;;;;9.73;4.70;;;;;;;9.84;100.00;100889.41;5231308;28;20039;-77
2024/02/04 05:01:49;;;;;;;11.80;5.05;;;;;;;9.79;100.00;100888.69;5227389;28;20028;-76
2024/02/04 05:04:19;;;;;;;10.50;4.95;;;;;;;9.87;100.00;100890.19;5226439;28;20025;-76
2024/02/04 05:06:50;;;;;;;10.40;4.57;;;;;;;9.82;100.00;100902.50;5224932;28;20021;-76
2024/02/04 05:09:20;;;;;;;10.23;4.80;;;;;;;9.80;100.00;100903.47;5231273;28;20032;-76
2024/02/04 05:11:50;;;;;;;13.38;5.20;;;;;;;9.71;100.00;100898.47;5228618;28;20043;-77
2024/02/04 05:14:21;;;;;;;10.25;5.03;;;;;;;9.77;100.00;100898.28;5228707;28;20036;-77
2024/02/04 05:16:51;;;;;;;14.63;5.40;;;;;;;9.68;100.00;100909.84;5227353;28;20059;-76
2024/02/04 05:19:22;;;;;;;10.55;5.20;;;;;;;9.73;100.00;100912.34;5228923;28;20442;-76
2024/02/04 05:21:52;;;;;;;9.43;5.25;;;;;;;9.67;100.00;100907.28;5225771;28;20021;-76
2024/02/04 05:24:22;;;;;;;10.80;5.20;;;;;;;9.60;100.00;100884.84;5226283;28;20021;-76
2024/02/04 05:26:53;;;;;;;14.18;6.10;;;;;;;9.62;100.00;100880.47;5226287;28;20107;-76
2024/02/04 05:29:23;;;;;;;9.10;5.40;;;;;;;9.59;100.00;100884.00;5227161;28;20290;-76
2024/02/04 05:31:53;;;;;;;14.48;5.45;;;;;;;9.60;100.00;100890.06;5228023;28;20025;-76
2024/02/04 05:34:24;;;;;;;10.75;5.75;;;;;;;9.54;100.00;100879.81;5225866;28;20028;-77
2024/02/04 05:36:54;;;;;;;12.50;5.90;;;;;;;9.50;100.00;100880.78;5226217;28;20484;-76
2024/02/04 05:39:24;;;;;;;16.80;6.57;;;;;;;9.52;100.00;100892.03;5227806;28;20390;-76
2024/02/04 05:41:55;;;;;;;11.85;6.30;;;;;;;9.52;100.00;100902.47;5225983;28;20037;-77
2024/02/04 05:44:25;;;;;;;11.77;6.70;;;;;;;9.50;100.00;100906.88;5210582;28;20025;-76
2024/02/04 05:46:55;;;;;;;11.38;6.30;;;;;;;9.52;100.00;100900.69;5226225;28;20041;-76
2024/02/04 05:49:26;;;;;;;11.80;6.45;;;;;;;9.47;100.00;100901.75;5227815;28;20471;-76
2024/02/04 05:51:56;;;;;;;12.60;6.72;;;;;;;9.51;100.00;100896.38;5227714;28;20029;-76
2024/02/04 05:54:26;;;;;;;15.15;7.20;;;;;;;9.45;100.00;100888.72;5227977;28;20087;-76
2024/02/04 05:56:56;;;;;;;12.27;6.55;;;;;;;9.48;100.00;100895.63;5227925;28;20516;-76
2024/02/04 05:59:27;;;;;;;12.68;6.28;;;;;;;9.39;100.00;100888.91;5224546;28;20437;-76
2024/02/04 06:01:57;;;;;;;14.90;6.65;;;;;;;9.37;100.00;100887.22;5207880;28;20094;-76
2024/02/04 06:04:28;;;;;;;18.05;6.93;;;;;;;9.33;100.00;100880.38;5225553;28;20090;-75
2024/02/04 06:06:59;;;;;;;14.02;6.95;;;;;;;9.26;100.00;100865.75;5206312;28;20107;-77
2024/02/04 06:09:29;;;;;;;13.60;7.15;;;;;;;9.22;100.00;100861.53;5218728;28;20103;-76
2024/02/04 06:11:59;;;;;;;14.52;6.68;;;;;;;9.24;100.00;100865.81;5223783;28;20429;-76
2024/02/04 06:14:29;;;;;;;14.15;6.13;;;;;;;9.24;100.00;100862.34;5210705;28;20029;-76
2024/02/04 06:17:00;;;;;;;12.70;6.10;;;;;;;9.30;100.00;100854.38;5226024;28;20544;-76
2024/02/04 06:19:30;;;;;;;14.25;6.03;;;;;;;9.31;100.00;100850.88;5228100;28;20023;-76
2024/02/04 06:22:00;;;;;;;12.63;5.80;;;;;;;9.40;100.00;100850.59;5228103;28;20021;-76
2024/02/04 06:24:31;;;;;;;13.68;5.90;;;;;;;9.41;100.00;100860.16;5223080;28;20029;-76
2024/02/04 06:27:01;;;;;;;9.57;4.97;;;;;;;9.48;100.00;100846.06;5207099;28;20108;-77
2024/02/04 06:29:31;;;;;;;11.68;5.05;;;;;;;9.46;100.00;100846.09;5224801;28;20482;-77
2024/02/04 06:32:02;;;;;;;10.18;5.18;;;;;;;9.48;100.00;100838.25;5223469;28;20645;-76
2024/02/04 06:34:32;;;;;;;10.27;5.20;;;;;;;9.49;100.00;100835.56;5223948;28;20020;-76
2024/02/04 06:37:02;;;;;;;9.20;5.10;;;;;;;9.42;100.00;100822.72;5225997;28;20021;-77
2024/02/04 06:39:33;;;;;;;10.23;4.90;;;;;;;9.46;100.00;100829.59;5222661;28;20614;-76
2024/02/04 06:42:03;;;;;;;8.43;4.88;;;;;;;9.47;100.00;100836.53;5225514;28;20107;-76
2024/02/04 06:44:34;;;;;;;11.18;4.90;;;;;;;9.49;100.00;100845.16;5226341;28;20025;-76
2024/02/04 06:47:04;;;;;;;8.75;4.75;;;;;;;9.41;100.00;100832.31;5231296;28;20510;-77
2024/02/04 06:49:34;;;;;;;10.35;4.60;;;;;;;9.38;100.00;100842.84;5229420;28;20317;-76
2024/02/04 06:52:05;;;;;;;9.48;4.55;;;;;;;9.38;100.00;100826.31;5230807;28;20466;-76
2024/02/04 06:54:35;;;;;;;12.00;4.72;;;;;;;9.32;100.00;100831.72;5207008;28;20120;-76
2024/02/04 06:57:05;;;;;;;12.90;4.32;;;;;;;9.42;100.00;100836.63;5226884;28;20079;-76
2024/02/04 06:59:36;;;;;;;10.60;4.07;;;;;;;9.44;100.00;100833.97;5209682;28;20059;-76
2024/02/04 07:02:06;;;;;;;9.23;3.55;;;;;;;9.42;100.00;100838.38;5210615;28;20032;-76
2024/02/04 07:04:36;;;;;;;10.68;3.67;;;;;;;9.50;100.00;100831.22;5227583;28;20042;-76
2024/02/04 07:07:06;;;;;;;6.45;3.50;;;;;;;9.46;100.00;100824.38;5224154;28;20045;-76
2024/02/04 07:09:37;;;;;;;9.10;3.65;;;;;;;9.45;100.00;100820.06;5221986;28;20077;-76
2024/02/04 07:12:07;;;;;;;11.10;4.07;;;;;;;9.51;100.00;100822.50;5225425;28;20024;-76
2024/02/04 07:14:38;;;;;;;8.43;4.35;;;;;;;9.50;100.00;100815.56;5226952;28;20504;-76
2024/02/04 07:17:08;;;;;;;9.95;4.78;;;;;;;9.52;100.00;100819.00;5209514;28;20113;-77
2024/02/04 07:19:38;;;;;;;6.22;3.10;;;;;;;9.55;100.00;100826.72;5222546;28;20029;-75
2024/02/04 07:22:09;;;;;;;6.35;2.80;;;;;;;9.52;100.00;100811.16;5228530;28;20028;-76
2024/02/04 07:24:39;;;;;;;5.07;2.40;;;;;;;9.49;100.00;100808.63;5203487;28;20115;-76
2024/02/04 07:27:09;;;;;;;6.05;2.78;;;;;;;9.51;99.66;100807.69;5227448;28;20036;-76
2024/02/04 07:29:40;;;;;;;6.82;3.17;;;;;;;9.57;99.36;100815.34;5226909;28;20029;-76
2024/02/04 07:32:10;;;;;;;5.28;2.38;;;;;;;9.57;99.47;100811.88;5202894;28;20165;-76
2024/02/04 07:34:41;;;;;;;7.45;2.30;;;;;;;9.54;99.00;100814.56;5223966;28;20025;-74
2024/02/04 07:37:11;;;;;;;7.88;2.92;;;;;;;9.55;98.83;100804.13;5221344;28;20378;-77
2024/02/04 07:39:41;;;;;;;8.27;2.45;;;;;;;9.56;98.63;100804.94;5223342;28;20028;-75
2024/02/04 07:42:12;;;;;;;6.20;2.25;;;;;;;9.61;98.59;100796.09;5211171;28;20035;-77
2024/02/04 07:44:42;;;;;;;5.85;2.30;;;;;;;9.64;98.32;100800.38;5232288;28;20513;-75
2024/02/04 07:47:13;;;;;;;5.20;2.05;;;;;;;9.65;97.87;100812.53;5194199;28;20492;-76
2024/02/04 07:49:43;;;;;;;7.78;3.05;;;;;;;9.70;97.84;100814.13;5228138;28;20127;-76
2024/02/04 07:52:14;;;;;;;9.85;2.90;;;;;;;9.68;97.57;100812.44;5212402;28;20066;-76
2024/02/04 07:54:45;;;;;;;7.80;2.30;;;;;;;9.70;97.29;100802.81;5203768;28;20025;-76
2024/02/04 07:57:15;;;;;;;9.20;2.92;;;;;;;9.66;98.54;100816.84;5227275;28;20070;-76
2024/02/04 07:59:45;;;;;;;4.38;2.20;;;;;;;9.68;97.65;100810.69;5202520;28;20024;-76
2024/02/04 08:02:16;;;;;;;6.55;2.22;;;;;;;9.64;97.63;100813.44;5231043;28;20516;-76
2024/02/04 08:04:46;;;;;;;8.85;3.15;;;;;;;9.70;98.04;100835.00;5211027;28;20059;-76
2024/02/04 08:07:17;;;;;;;8.82;2.53;;;;;;;9.83;97.66;100825.91;5223195;28;20471;-76
2024/02/04 08:09:50;;;;;;;9.77;2.78;;;;;;;9.76;97.42;100803.50;5208195;28;20067;-76
2024/02/04 08:12:20;;;;;;;8.57;2.25;;;;;;;9.79;96.57;100797.34;5211408;28;20025;-77
2024/02/04 08:14:50;;;;;;;11.43;3.97;;;;;;;9.73;96.82;100813.16;5226223;28;20028;-75
2024/02/04 08:17:21;;;;;;;7.22;2.72;;;;;;;9.78;97.20;100808.66;5231786;28;20115;-76
2024/02/04 08:19:51;;;;;;;6.55;2.40;;;;;;;9.94;96.22;100786.44;5225904;28;20492;-76
2024/02/04 08:22:21;;;;;;;12.27;4.28;;;;;;;9.87;96.42;100793.63;5227790;28;20059;-76
2024/02/04 08:24:52;;;;;;;10.73;4.07;;;;;;;9.99;96.32;100779.34;5230262;28;20276;-76
2024/02/04 08:27:22;;;;;;;5.18;1.63;;;;;;;10.11;95.51;100807.72;5209259;28;20468;-76
2024/02/04 08:29:52;;;;;;;4.28;1.40;;;;;;;10.06;95.30;100791.34;5221603;28;20024;-76
2024/02/04 08:32:22;;;;;;;5.38;1.33;;;;;;;10.08;94.36;100794.75;5230642;28;20055;-76
2024/02/04 08:34:53;;;;;;;7.68;2.42;;;;;;;10.03;94.28;100781.81;5210530;28;20033;-76
2024/02/04 08:37:23;;;;;;;14.93;5.45;;;;;;;10.06;94.04;100792.19;5220909;28;20025;-76
2024/02/04 08:39:53;;;;;;;16.50;5.47;;;;;;;10.12;93.74;100788.53;5219339;28;20110;-76
2024/02/04 08:42:24;;;;;;;11.15;4.00;;;;;;;10.15;93.45;100776.25;5201163;28;20025;-76
2024/02/04 08:44:54;;;;;;;4.88;1.30;;;;;;;10.08;94.01;100794.75;5207191;28;20036;-76
2024/02/04 08:47:24;;;;;;;4.68;1.42;;;;;;;10.15;94.08;100798.91;5221539;28;20035;-76
2024/02/04 08:49:55;;;;;;;3.67;1.00;;;;;;;10.11;94.27;100789.44;5216050;28;20095;-76
2024/02/04 08:52:25;;;;;;;3.13;1.17;;;;;;;10.03;93.47;100781.81;5218194;28;20040;-76
2024/02/04 08:54:55;;;;;;;4.97;1.40;;;;;;;10.19;94.05;100777.00;5225172;28;20113;-76
2024/02/04 08:57:25;;;;;;;5.55;1.17;;;;;;;10.15;93.10;100780.63;5208726;28;20020;-76
2024/02/04 08:59:56;;;;;;;5.68;1.58;;;;;;;10.13;92.73;100780.66;5217656;28;20196;-75
2024/02/04 09:02:26;;;;;;;4.07;1.27;;;;;;;10.21;91.72;100791.75;5216415;28;20063;-76
2024/02/04 09:04:56;;;;;;;5.95;1.33;;;;;;;10.21;92.29;100790.88;5210690;28;20040;-73
2024/02/04 09:07:27;;;;;;;4.57;1.17;;;;;;;10.26;93.11;100788.97;5216500;28;20028;-76
2024/02/04 09:09:57;;;;;;;4.30;1.30;;;;;;;10.24;92.36;100790.78;5221708;28;20033;-76
2024/02/04 09:12:27;;;;;;;4.43;1.00;;;;;;;10.18;92.19;100793.59;5222756;28;20477;-73
2024/02/04 09:14:58;;;;;;;1.88;0.80;;;;;;;10.20;92.25;100791.78;5220554;28;20063;-76
2024/02/04 09:17:28;;;;;;;5.40;1.08;;;;;;;10.25;91.26;100776.81;5224575;28;20017;-76
2024/02/04 09:19:59;;;;;;;4.32;0.80;;;;;;;10.29;89.50;100783.63;5216809;28;20037;-76
2024/02/04 09:22:30;;;;;;;4.85;1.00;;;;;;;10.34;88.78;100797.44;5219276;28;20559;-76
2024/02/04 09:25:00;;;;;;;4.65;1.00;;;;;;;10.33;88.55;100800.97;5198033;28;20075;-76
2024/02/04 09:27:31;;;;;;;5.68;1.00;;;;;;;10.34;87.52;100795.66;5193763;28;20441;-76
2024/02/04 09:30:04;;;;;;;5.22;1.17;;;;;;;10.35;87.10;100784.31;5213660;28;20048;-75
2024/02/04 09:32:34;;;;;;;6.43;1.13;;;;;;;10.43;86.72;100789.28;5216158;28;20037;-76
2024/02/04 09:35:04;;;;;;;6.15;1.63;;;;;;;10.49;85.90;100776.91;5216559;28;20110;-75
2024/02/04 09:37:35;;;;;;;4.72;1.30;;;;;;;10.54;85.57;100779.38;5214244;28;20531;-76
2024/02/04 09:40:06;;;;;;;9.98;1.42;;;;;;;10.45;85.83;100785.75;5209043;28;20546;-75
2024/02/04 09:42:36;;;;;;;5.85;0.90;;;;;;;10.58;85.30;100791.44;5214231;28;20036;-76
2024/02/04 09:45:07;;;;;;;7.05;1.00;;;;;;;10.51;84.75;100780.31;5257537;22;20487;-75
2024/02/04 09:47:40;;;;;;;7.90;0.85;;;;;;;10.64;84.55;100793.81;5255755;28;20031;-76
2024/02/04 09:50:10;;;;;;;5.47;1.00;;;;;;;10.78;85.30;100799.47;5239776;28;20031;-76
2024/02/04 09:52:48;;;;;;;6.97;1.25;;;;;;;10.69;84.04;100787.56;5243702;28;20387;-77
2024/02/04 09:55:23;;;;;;;5.70;1.13;;;;;;;10.59;84.54;100787.91;5245848;28;20067;-76
2024/02/04 09:57:53;;;;;;;8.05;1.15;;;;;;;10.59;84.24;100767.00;5236066;28;20077;-76
2024/02/04 10:00:27;;;;;;;4.47;1.10;;;;;;;10.48;84.89;100774.34;5222683;28;20444;-76
2024/02/04 10:02:57;;;;;;;6.63;1.10;;;;;;;10.51;85.23;100779.47;5237952;28;20021;-77
2024/02/04 10:05:28;;;;;;;4.93;1.30;;;;;;;10.52;84.55;100770.72;5240606;28;20036;-76
2024/02/04 10:07:58;;;;;;;6.03;1.30;;;;;;;10.46;84.39;100769.16;5221534;28;20552;-77
2024/02/04 10:10:30;;;;;;;7.32;1.00;;;;;;;10.45;84.60;100772.69;5244793;28;20024;-76
2024/02/04 10:13:08;;;;;;;8.35;1.67;;;;;;;10.54;85.07;100782.81;5236141;28;20040;-76
2024/02/04 10:15:38;;;;;;;7.90;1.10;;;;;;;10.53;84.87;100785.50;5236584;28;20027;-77
2024/02/04 10:18:09;;;;;;;8.32;2.42;;;;;;;10.56;86.13;100790.63;5227540;28;20037;-75
2024/02/04 10:20:39;;;;;;;5.78;1.20;;;;;;;10.61;85.99;100801.78;5241015;28;20057;-74
2024/02/04 10:23:09;;;;;;;5.75;1.10;;;;;;;10.48;86.02;100805.69;5223903;28;20474;-74
2024/02/04 10:25:40;;;;;;;6.45;1.00;;;;;;;10.46;85.18;100803.13;5246622;28;20399;-74
2024/02/04 10:28:10;;;;;;;3.78;1.10;;;;;;;10.58;85.15;100794.03;5236773;28;20083;-74
2024/02/04 10:30:40;;;;;;;9.23;1.40;;;;;;;10.67;84.38;100789.38;5246540;28;20491;-74
2024/02/04 10:33:11;;;;;;;7.47;1.42;;;;;;;10.74;84.17;100792.63;5247789;28;20676;-74
2024/02/04 10:35:44;;;;;;;5.70;1.10;;;;;;;10.70;84.22;100786.66;5242875;28;20024;-74
2024/02/04 10:38:15;;;;;;;9.35;1.30;;;;;;;10.53;84.13;100801.19;5242918;28;20093;-74
2024/02/04 10:40:46;;;;;;;6.30;1.50;;;;;;;10.41;84.10;100791.97;5243874;28;20031;-74
2024/02/04 10:43:16;;;;;;;6.50;1.17;;;;;;;10.54;84.33;100787.22;5241988;28;20063;-74
2024/02/04 10:45:48;;;;;;;5.63;1.35;;;;;;;10.61;84.88;100791.31;5241267;28;20029;-75
2024/02/04 10:48:20;;;;;;;7.65;1.15;;;;;;;10.60;84.54;100793.09;5242253;28;20128;-76
2024/02/04 10:50:53;;;;;;;7.68;1.15;;;;;;;10.46;83.90;100800.50;5229598;28;20047;-76
2024/02/04 10:53:24;;;;;;;7.80;1.40;;;;;;;10.45;84.20;100800.53;5238419;28;20634;-76
2024/02/04 10:56:02;;;;;;;6.80;1.30;;;;;;;10.45;84.30;100793.59;5242453;28;20032;-76
2024/02/04 10:58:33;;;;;;;11.88;1.90;;;;;;;10.55;83.58;100791.53;5241086;28;20434;-76
2024/02/04 11:01:03;;;;;;;9.38;1.65;;;;;;;10.77;83.32;100797.75;5225409;28;20445;-74
2024/02/04 11:03:34;;;;;;;11.73;1.65;;;;;;;10.79;83.19;100778.53;5244971;28;20068;-76
2024/02/04 11:06:04;;;;;;;13.85;1.80;;;;;;;10.93;83.01;100775.44;5243181;28;20028;-76
2024/02/04 11:08:35;;;;;;;8.95;1.98;;;;;;;10.95;82.02;100771.00;5241081;28;20037;-76
2024/02/04 11:11:05;;;;;;;5.40;1.17;;;;;;;10.86;82.58;100761.72;5239221;28;20889;-76
2024/02/04 11:13:37;;;;;;;9.05;1.35;;;;;;;10.88;82.39;100759.88;5240273;28;20442;-75
2024/02/04 11:16:21;;;;;;;9.52;1.30;;;;;;;10.89;82.62;100760.75;5218083;28;20547;-73
2024/02/04 11:19:08;;;;;;;9.60;1.38;;;;;;;10.83;83.24;100766.22;5236603;28;20533;-74
2024/02/04 11:22:08;;;;;;;8.73;1.10;;;;;;;10.93;81.97;100741.44;5237468;28;20032;-76
2024/02/04 11:25:10;;;;;;;7.22;1.15;;;;;;;10.84;81.99;100744.38;5237925;28;20200;-76
2024/02/04 11:27:41;;;;;;;11.20;1.40;;;;;;;10.75;81.97;100752.53;5236199;28;20075;-76
2024/02/04 11:30:11;;;;;;;12.18;1.80;;;;;;;10.87;82.11;100742.50;5221698;28;20135;-76
2024/02/04 11:32:42;;;;;;;7.10;1.60;;;;;;;10.80;83.23;100719.22;5237471;28;20055;-76
2024/02/04 11:35:12;;;;;;;10.75;1.83;;;;;;;10.77;82.97;100727.19;5239981;28;20079;-76
2024/02/04 11:37:45;;;;;;;8.15;1.58;;;;;;;10.89;82.87;100726.78;5245657;28;20024;-76
2024/02/04 11:40:18;;;;;;;9.50;1.27;;;;;;;10.92;82.63;100734.50;5237872;28;20529;-76
2024/02/04 11:42:49;;;;;;;7.28;1.50;;;;;;;10.57;83.52;100733.09;5242175;28;20025;-76